Time;durP1;ratioP1;P1;durP2;ratioP2;P2;SDS_P1;SDS_P2;PMS_P1;PMS_P2;Temp;Humidity;BMP_temperature;BMP_pressure;BME280_temperature;BME280_humidity;BME280_pressure;Samples;Min_cycle;Max_cycle;Signal;HPM_P1;HPM_P2
2021/11/09 00:02:11;;;;;;;20.08;9.65;;;5.50;99.90;;;;;;5062931;28;20488;-88
2021/11/09 00:04:40;;;;;;;17.30;9.68;;;6.20;99.90;;;;;;5039319;28;20650;-89
2021/11/09 00:10:01;;;;;;;23.45;13.48;;;5.50;99.90;;;;;;5055093;28;20484;-90
2021/11/09 00:12:31;;;;;;;20.25;10.88;;;5.60;99.90;;;;;;5049108;28;20040;-89
2021/11/09 00:15:00;;;;;;;20.77;9.55;;;5.70;99.90;;;;;;5036372;28;20103;-88
2021/11/09 00:17:28;;;;;;;24.05;10.70;;;5.50;99.90;;;;;;5057382;28;20029;-87
2021/11/09 00:19:56;;;;;;;15.82;8.68;;;5.40;99.90;;;;;;5054758;28;20025;-88
2021/11/09 00:22:23;;;;;;;15.65;7.93;;;6.00;99.90;;;;;;5056313;28;20025;-88
2021/11/09 00:24:50;;;;;;;17.45;8.25;;;5.70;99.90;;;;;;5056437;28;20493;-87
2021/11/09 00:27:16;;;;;;;15.60;8.15;;;5.70;99.90;;;;;;5054832;28;20052;-87
2021/11/09 00:29:42;;;;;;;16.85;9.30;;;6.30;99.90;;;;;;5053576;28;20060;-87
2021/11/09 00:32:09;;;;;;;41.28;19.70;;;5.80;99.90;;;;;;5067719;28;20056;-87
2021/11/09 00:34:35;;;;;;;15.07;9.05;;;5.90;99.90;;;;;;5057209;28;20028;-87
2021/11/09 00:37:04;;;;;;;18.67;9.93;;;5.70;99.90;;;;;;5061094;28;20111;-88
2021/11/09 00:39:30;;;;;;;27.00;14.15;;;5.90;99.90;;;;;;5067472;28;20024;-88
2021/11/09 00:41:56;;;;;;;24.27;9.35;;;6.00;99.90;;;;;;5032383;28;20029;-87
2021/11/09 00:44:23;;;;;;;18.00;7.18;;;6.10;99.90;;;;;;5058285;28;20029;-88
2021/11/09 00:46:50;;;;;;;16.45;6.50;;;6.30;99.90;;;;;;5036917;28;20163;-87
2021/11/09 00:49:16;;;;;;;16.80;7.28;;;6.20;99.90;;;;;;5054673;28;20025;-87
2021/11/09 00:51:44;;;;;;;16.80;8.90;;;6.30;99.90;;;;;;5055190;28;20040;-87
2021/11/09 00:54:11;;;;;;;17.52;9.32;;;6.90;99.90;;;;;;5051844;28;20270;-87
2021/11/09 00:56:37;;;;;;;17.50;8.02;;;6.90;99.90;;;;;;5035537;28;20482;-87
2021/11/09 00:59:04;;;;;;;19.55;8.63;;;6.40;99.90;;;;;;5057631;28;20033;-87
2021/11/09 01:01:30;;;;;;;18.67;7.55;;;6.50;99.90;;;;;;5037564;28;20025;-88
2021/11/09 01:03:56;;;;;;;17.90;7.53;;;6.80;99.90;;;;;;5055859;28;20039;-87
2021/11/09 01:06:22;;;;;;;16.38;7.20;;;6.30;99.90;;;;;;5053335;28;20101;-88
2021/11/09 01:08:48;;;;;;;17.95;7.55;;;6.80;99.90;;;;;;5052206;28;20044;-87
2021/11/09 01:11:14;;;;;;;17.23;7.85;;;6.20;99.90;;;;;;5057516;28;20220;-87
2021/11/09 01:13:40;;;;;;;18.60;8.10;;;6.60;99.90;;;;;;5048232;28;20119;-88
2021/11/09 01:16:06;;;;;;;18.52;7.45;;;6.20;99.90;;;;;;5061648;28;20017;-88
2021/11/09 01:18:36;;;;;;;16.92;7.65;;;6.20;99.90;;;;;;5053716;28;20048;-87
2021/11/09 01:21:02;;;;;;;21.00;8.70;;;6.10;99.90;;;;;;5050653;28;20018;-87
2021/11/09 01:23:28;;;;;;;16.80;7.38;;;6.20;99.90;;;;;;5055717;28;20504;-87
2021/11/09 01:25:54;;;;;;;27.48;11.73;;;6.60;99.90;;;;;;5053579;28;20021;-87
2021/11/09 01:28:20;;;;;;;17.40;7.95;;;6.80;99.90;;;;;;5055349;28;20409;-87
2021/11/09 01:30:47;;;;;;;28.77;15.60;;;6.20;99.90;;;;;;5053640;28;20028;-87
2021/11/09 01:33:13;;;;;;;19.40;8.35;;;6.20;99.90;;;;;;5053258;28;20493;-88
2021/11/09 01:35:39;;;;;;;24.20;9.10;;;6.80;99.90;;;;;;5053271;28;20049;-88
2021/11/09 01:38:05;;;;;;;19.45;8.25;;;6.70;99.90;;;;;;5055028;28;20060;-87
2021/11/09 01:40:32;;;;;;;19.80;8.43;;;6.00;99.90;;;;;;5055095;28;20036;-87
2021/11/09 01:42:59;;;;;;;17.90;8.50;;;6.70;99.90;;;;;;5036956;28;20033;-87
2021/11/09 01:45:26;;;;;;;21.50;8.80;;;6.00;99.90;;;;;;5054308;28;20123;-86
2021/11/09 01:47:59;;;;;;;21.35;9.07;;;6.00;99.90;;;;;;5033433;28;20620;-88
2021/11/09 01:50:37;;;;;;;17.20;7.78;;;6.00;99.90;;;;;;5056100;28;20386;-88
2021/11/09 01:53:04;;;;;;;17.38;8.05;;;6.10;99.90;;;;;;5054379;28;20028;-87
2021/11/09 01:55:31;;;;;;;20.40;7.68;;;6.00;99.90;;;;;;5055384;28;20497;-88
2021/11/09 01:57:58;;;;;;;21.27;8.18;;;6.00;99.90;;;;;;5053120;28;20048;-88
2021/11/09 02:00:29;;;;;;;21.80;9.75;;;5.90;99.90;;;;;;5052772;28;20024;-88
2021/11/09 02:03:03;;;;;;;20.63;9.10;;;5.90;99.90;;;;;;5017263;28;20033;-87
2021/11/09 02:05:29;;;;;;;18.08;8.90;;;5.90;99.90;;;;;;5055058;28;20021;-87
2021/11/09 02:07:59;;;;;;;16.80;8.63;;;6.50;99.90;;;;;;5055026;28;20021;-87
2021/11/09 02:10:29;;;;;;;16.17;8.40;;;5.70;99.90;;;;;;5054733;28;20044;-87
2021/11/09 02:12:55;;;;;;;20.33;8.35;;;6.40;99.90;;;;;;5033431;28;20025;-87
2021/11/09 02:15:21;;;;;;;18.67;9.57;;;6.50;99.90;;;;;;5038213;28;20515;-87
2021/11/09 02:17:48;;;;;;;20.85;7.90;;;6.60;99.90;;;;;;5051058;28;20095;-87
2021/11/09 02:20:16;;;;;;;14.88;8.07;;;6.20;99.90;;;;;;5056639;28;20489;-87
2021/11/09 02:22:42;;;;;;;17.10;8.45;;;6.20;99.90;;;;;;5054545;28;20573;-87
2021/11/09 02:25:12;;;;;;;18.83;7.85;;;6.60;99.90;;;;;;5054521;28;20370;-87
2021/11/09 02:27:39;;;;;;;18.08;7.68;;;6.60;99.90;;;;;;5054038;28;20075;-87
2021/11/09 02:30:08;;;;;;;19.85;8.95;;;6.50;99.90;;;;;;5033100;28;20024;-88
2021/11/09 02:32:33;;;;;;;20.70;8.75;;;6.10;99.90;;;;;;5036182;28;20079;-88
2021/11/09 02:34:59;;;;;;;22.52;8.85;;;6.00;99.90;;;;;;5034328;28;20026;-87
2021/11/09 02:37:25;;;;;;;15.02;8.60;;;5.80;99.90;;;;;;5050769;28;20043;-87
2021/11/09 02:39:51;;;;;;;16.63;8.25;;;5.70;99.90;;;;;;5053161;28;20431;-87
2021/11/09 02:42:19;;;;;;;17.48;8.60;;;5.70;99.90;;;;;;5032740;28;20123;-88
2021/11/09 02:45:08;;;;;;;18.80;8.65;;;5.70;99.90;;;;;;5033523;28;20025;-88
2021/11/09 02:48:01;;;;;;;19.50;8.40;;;5.80;99.90;;;;;;5064624;28;20033;-87
2021/11/09 02:50:33;;;;;;;16.98;8.73;;;5.90;99.90;;;;;;5033959;28;20441;-87
2021/11/09 02:53:03;;;;;;;19.77;8.45;;;5.80;99.90;;;;;;5054453;28;20009;-88
2021/11/09 02:56:04;;;;;;;17.08;8.18;;;5.80;99.90;;;;;;5054560;28;20112;-88
2021/11/09 03:01:36;;;;;;;19.00;8.27;;;6.10;99.90;;;;;;5054473;28;20021;-88
2021/11/09 03:08:49;;;;;;;16.15;8.68;;;5.90;99.90;;;;;;5050794;28;20489;-87
2021/11/09 03:11:16;;;;;;;14.55;8.57;;;6.40;99.90;;;;;;5070346;28;20039;-88
2021/11/09 03:13:48;;;;;;;17.48;8.27;;;6.00;99.90;;;;;;5035470;28;20079;-88
2021/11/09 03:16:15;;;;;;;24.23;9.93;;;6.50;99.90;;;;;;5046988;28;20037;-87
2021/11/09 03:18:51;;;;;;;19.35;8.77;;;6.00;99.90;;;;;;5052769;28;20078;-87
2021/11/09 03:40:07;;;;;;;18.08;9.00;;;5.80;99.90;;;;;;5057396;28;20032;-88
2021/11/09 03:45:27;;;;;;;18.83;9.32;;;5.80;99.90;;;;;;5056710;28;20078;-87
2021/11/09 03:47:56;;;;;;;20.00;9.07;;;5.80;99.90;;;;;;5035061;28;20048;-88
2021/11/09 03:50:25;;;;;;;19.90;9.77;;;5.70;99.90;;;;;;5048322;28;20031;-87
2021/11/09 03:53:36;;;;;;;18.33;9.80;;;5.70;99.90;;;;;;5056659;28;20033;-88
2021/11/09 03:55:57;;;;;;;16.10;9.50;;;5.60;99.90;;;;;;5045705;28;20041;-87
2021/11/09 04:01:03;;;;;;;19.45;9.77;;;5.80;99.90;;;;;;5057949;28;20020;-87
2021/11/09 04:06:30;;;;;;;15.90;9.40;;;6.40;99.90;;;;;;5055692;28;20043;-88
2021/11/09 04:09:13;;;;;;;24.45;10.65;;;5.80;99.90;;;;;;5035284;28;20370;-88
2021/11/09 04:14:24;;;;;;;20.55;9.63;;;5.70;99.90;;;;;;5056858;28;20021;-87
2021/11/09 04:25:35;;;;;;;17.25;10.10;;;5.90;99.90;;;;;;5014455;28;20425;-87
2021/11/09 04:36:48;;;;;;;19.67;11.18;;;5.70;99.90;;;;;;5011010;28;20394;-87
2021/11/09 04:52:28;;;;;;;22.00;10.30;;;5.80;99.90;;;;;;5014124;28;20521;-87
2021/11/09 05:10:37;;;;;;;18.33;10.68;;;6.30;99.90;;;;;;5055963;28;20033;-88
2021/11/09 05:13:03;;;;;;;25.40;10.90;;;5.80;99.90;;;;;;5037528;28;20089;-87
2021/11/09 05:15:28;;;;;;;18.13;11.60;;;5.70;99.90;;;;;;5056731;28;20477;-88
2021/11/09 05:17:54;;;;;;;22.15;10.98;;;6.20;99.90;;;;;;5050368;28;20036;-87
2021/11/09 05:20:20;;;;;;;21.02;10.43;;;6.10;99.90;;;;;;5057400;28;20021;-87
2021/11/09 05:22:46;;;;;;;20.77;11.73;;;5.80;99.90;;;;;;5055241;28;20072;-86
2021/11/09 05:25:12;;;;;;;17.77;10.77;;;5.80;99.90;;;;;;5055675;28;20358;-87
2021/11/09 05:27:38;;;;;;;21.67;11.10;;;5.90;99.90;;;;;;5036049;28;20067;-88
2021/11/09 05:30:05;;;;;;;21.42;11.07;;;5.80;99.90;;;;;;5034094;28;20024;-88
2021/11/09 05:32:31;;;;;;;17.88;9.98;;;5.80;99.90;;;;;;5054989;28;20564;-87
2021/11/09 05:34:57;;;;;;;20.55;10.95;;;6.50;99.90;;;;;;5053719;28;20020;-89
2021/11/09 05:37:28;;;;;;;20.60;11.57;;;6.10;99.90;;;;;;5054566;28;20378;-87
2021/11/09 05:39:55;;;;;;;20.65;12.45;;;6.10;99.90;;;;;;5055283;28;20063;-87
2021/11/09 05:42:22;;;;;;;22.27;12.60;;;5.80;99.90;;;;;;5053457;28;20490;-87
2021/11/09 05:44:49;;;;;;;21.45;12.18;;;5.90;99.90;;;;;;5051096;28;20052;-87
2021/11/09 05:47:15;;;;;;;22.02;12.75;;;5.90;99.90;;;;;;5038822;28;20104;-88
2021/11/09 05:49:41;;;;;;;21.38;12.13;;;6.00;99.90;;;;;;5054944;28;20078;-88
2021/11/09 05:52:08;;;;;;;21.30;11.82;;;6.00;99.90;;;;;;5059366;28;20067;-87
2021/11/09 05:54:33;;;;;;;18.23;11.85;;;5.90;99.90;;;;;;5064352;28;20078;-88
2021/11/09 05:56:59;;;;;;;24.15;12.57;;;5.80;99.90;;;;;;5050500;28;20431;-87
2021/11/09 05:59:25;;;;;;;17.77;11.73;;;6.40;99.90;;;;;;5038328;28;20025;-87
2021/11/09 06:01:50;;;;;;;18.15;11.95;;;5.80;99.90;;;;;;5066505;28;20064;-87
2021/11/09 06:04:16;;;;;;;21.52;12.52;;;5.80;99.90;;;;;;5059469;28;20040;-87
2021/11/09 06:06:42;;;;;;;21.85;12.15;;;5.80;99.90;;;;;;5054036;28;20028;-87
2021/11/09 06:09:08;;;;;;;21.08;11.43;;;5.80;99.90;;;;;;5051828;28;20107;-88
2021/11/09 06:11:33;;;;;;;23.13;11.95;;;5.90;99.90;;;;;;5035585;28;20047;-87
2021/11/09 06:13:59;;;;;;;21.65;11.93;;;5.90;99.90;;;;;;5055387;28;20096;-87
2021/11/09 06:16:25;;;;;;;24.20;13.43;;;5.80;99.90;;;;;;5054378;28;20033;-87
2021/11/09 06:18:50;;;;;;;20.35;11.88;;;6.30;99.90;;;;;;5052362;28;20039;-87
2021/11/09 06:21:16;;;;;;;27.02;15.68;;;6.10;99.90;;;;;;5052662;28;20032;-87
2021/11/09 06:23:42;;;;;;;28.73;18.65;;;5.70;99.90;;;;;;5034040;28;20028;-87
2021/11/09 06:26:08;;;;;;;29.90;18.75;;;5.80;99.90;;;;;;5056469;28;20090;-87
2021/11/09 06:28:33;;;;;;;39.22;22.90;;;5.90;99.90;;;;;;5054007;28;20095;-87
2021/11/09 06:30:59;;;;;;;31.58;20.40;;;6.00;99.90;;;;;;5034279;28;20040;-87
2021/11/09 06:33:25;;;;;;;23.02;13.70;;;6.70;99.90;;;;;;5053181;28;20032;-87
2021/11/09 06:35:51;;;;;;;26.77;13.63;;;6.30;99.90;;;;;;5049906;28;20082;-87
2021/11/09 06:38:18;;;;;;;31.33;16.20;;;5.80;99.90;;;;;;5038764;28;20025;-87
2021/11/09 06:40:44;;;;;;;27.02;14.65;;;5.80;99.90;;;;;;5054087;28;20063;-88
2021/11/09 06:43:10;;;;;;;34.55;16.10;;;5.90;99.90;;;;;;5036559;28;20052;-87
2021/11/09 06:45:36;;;;;;;24.35;13.90;;;6.00;99.90;;;;;;5054388;28;20040;-88
2021/11/09 06:48:02;;;;;;;27.42;15.73;;;5.90;99.90;;;;;;5050543;28;20104;-88
2021/11/09 06:50:28;;;;;;;24.77;14.18;;;6.00;99.90;;;;;;5054573;28;20021;-87
2021/11/09 06:52:55;;;;;;;27.92;14.68;;;6.00;99.90;;;;;;5035044;28;20052;-86
2021/11/09 06:55:20;;;;;;;24.88;14.35;;;6.10;99.90;;;;;;5054237;28;20036;-87
2021/11/09 06:57:46;;;;;;;23.83;13.68;;;6.00;99.90;;;;;;5039129;28;20047;-87
2021/11/09 07:00:15;;;;;;;30.65;14.43;;;6.00;99.90;;;;;;5054665;28;20041;-87
2021/11/09 07:02:41;;;;;;;31.10;15.80;;;6.00;99.90;;;;;;5056157;28;20035;-88
2021/11/09 07:05:08;;;;;;;24.92;14.27;;;6.10;99.90;;;;;;5036535;28;20038;-89
2021/11/09 07:07:34;;;;;;;24.52;15.07;;;6.20;99.90;;;;;;5038455;28;20036;-89
2021/11/09 07:10:00;;;;;;;27.40;14.52;;;6.20;99.90;;;;;;5052504;28;20050;-91
2021/11/09 07:12:26;;;;;;;28.17;13.60;;;6.70;99.90;;;;;;5068758;28;20036;-91
2021/11/09 07:14:51;;;;;;;26.42;14.52;;;6.30;99.90;;;;;;5052857;28;20032;-91
2021/11/09 07:17:18;;;;;;;25.25;13.82;;;6.20;99.90;;;;;;5053145;28;20077;-89
2021/11/09 07:19:49;;;;;;;22.58;14.35;;;6.90;99.90;;;;;;5041312;28;20546;-88
2021/11/09 07:22:15;;;;;;;24.38;15.23;;;6.30;99.90;;;;;;5056052;28;20109;-88
2021/11/09 07:24:41;;;;;;;29.15;16.08;;;6.20;99.90;;;;;;5058429;28;20021;-91
2021/11/09 07:27:07;;;;;;;32.53;17.10;;;6.50;99.90;;;;;;5046377;28;20532;-91
2021/11/09 07:29:33;;;;;;;26.63;15.40;;;6.00;99.90;;;;;;5050417;28;20044;-87
2021/11/09 07:31:59;;;;;;;25.70;14.77;;;6.10;99.90;;;;;;5040159;28;20069;-86
2021/11/09 07:34:25;;;;;;;22.33;14.73;;;6.60;99.90;;;;;;5057428;28;20053;-87
2021/11/09 07:36:51;;;;;;;24.40;14.30;;;6.20;99.90;;;;;;5057361;28;20109;-91
2021/11/09 07:39:17;;;;;;;26.92;15.55;;;6.50;99.90;;;;;;5038071;28;20033;-86
2021/11/09 07:41:42;;;;;;;27.88;15.60;;;6.20;99.90;;;;;;5070919;28;20039;-86
2021/11/09 07:44:09;;;;;;;26.73;14.82;;;6.20;99.90;;;;;;5059388;28;20104;-86
2021/11/09 07:46:37;;;;;;;27.85;15.50;;;6.10;99.90;;;;;;5056672;28;20029;-86
2021/11/09 07:49:03;;;;;;;23.55;14.88;;;6.00;99.90;;;;;;5058045;28;20025;-86
2021/11/09 07:51:29;;;;;;;32.58;17.02;;;6.20;99.90;;;;;;5057574;28;20044;-86
2021/11/09 07:53:58;;;;;;;31.63;17.00;;;6.90;99.90;;;;;;5051208;28;20066;-86
2021/11/09 07:56:26;;;;;;;30.92;19.38;;;6.40;99.90;;;;;;5066609;28;20017;-86
2021/11/09 08:01:44;;;;;;;24.02;15.77;;;6.30;99.90;;;;;;5056692;28;20033;-87
2021/11/09 08:04:14;;;;;;;30.88;17.23;;;6.40;99.90;;;;;;5057289;28;20033;-86
2021/11/09 08:07:01;;;;;;;34.75;17.90;;;6.50;99.90;;;;;;5055952;28;20269;-86
2021/11/09 08:09:28;;;;;;;25.73;16.25;;;6.50;99.90;;;;;;5056282;28;20042;-86
2021/11/09 08:11:59;;;;;;;24.60;14.85;;;7.00;99.90;;;;;;5019040;28;20444;-86
2021/11/09 08:14:25;;;;;;;27.65;16.13;;;6.60;99.90;;;;;;5070878;28;20060;-86
2021/11/09 08:16:51;;;;;;;45.05;26.00;;;6.60;99.90;;;;;;5066845;28;20046;-86
2021/11/09 08:19:18;;;;;;;52.63;28.15;;;7.10;99.90;;;;;;5060916;28;20029;-86
2021/11/09 08:21:45;;;;;;;320.77;122.28;;;6.70;99.90;;;;;;5056629;28;20492;-86
2021/11/09 08:24:14;;;;;;;37.17;19.33;;;6.70;99.90;;;;;;5055077;28;20100;-86
2021/11/09 08:26:40;;;;;;;68.85;33.95;;;6.60;99.90;;;;;;5054202;28;20079;-87
2021/11/09 08:29:06;;;;;;;30.05;17.17;;;6.70;99.90;;;;;;5056345;28;20060;-86
2021/11/09 08:31:34;;;;;;;28.67;15.70;;;6.70;99.90;;;;;;5054757;28;20033;-86
2021/11/09 08:34:02;;;;;;;26.88;16.88;;;6.80;99.90;;;;;;5055171;28;20020;-86
2021/11/09 08:36:29;;;;;;;29.83;16.67;;;6.80;99.90;;;;;;5056331;28;20465;-87
2021/11/09 08:39:00;;;;;;;29.92;16.80;;;7.20;99.90;;;;;;5034753;28;20056;-86
2021/11/09 08:41:27;;;;;;;28.73;17.25;;;6.80;99.90;;;;;;5048447;28;20488;-86
2021/11/09 08:44:09;;;;;;;31.20;16.95;;;7.10;99.90;;;;;;5037982;28;20035;-86
2021/11/09 08:46:42;;;;;;;28.48;16.90;;;7.30;99.90;;;;;;5053599;28;20063;-85
2021/11/09 08:49:09;;;;;;;48.65;29.98;;;6.70;99.90;;;;;;5057396;28;20024;-86
2021/11/09 08:51:36;;;;;;;32.42;21.27;;;6.80;99.90;;;;;;5047097;28;20397;-86
2021/11/09 08:54:36;;;;;;;32.05;20.35;;;6.80;99.90;;;;;;5051665;28;20547;-86
2021/11/09 08:57:21;;;;;;;67.63;33.67;;;7.10;99.90;;;;;;5032105;28;20030;-86
2021/11/09 09:05:10;;;;;;;62.88;32.72;;;6.90;99.90;;;;;;5057265;28;20033;-86
2021/11/09 09:07:36;;;;;;;31.77;18.02;;;6.90;99.90;;;;;;5056102;28;20435;-86
2021/11/09 09:10:04;;;;;;;59.20;32.63;;;7.60;99.90;;;;;;5033181;28;20024;-86
2021/11/09 09:12:32;;;;;;;32.33;18.15;;;7.30;99.90;;;;;;5066349;28;20029;-86
2021/11/09 09:14:58;;;;;;;50.15;27.63;;;7.50;99.90;;;;;;5050774;28;20081;-86
2021/11/09 09:17:25;;;;;;;35.10;20.48;;;8.20;99.90;;;;;;5056068;28;20109;-86
2021/11/09 09:19:58;;;;;;;34.42;19.85;;;8.80;99.90;;;;;;5053930;28;20381;-86
2021/11/09 09:22:40;;;;;;;76.40;35.83;;;8.70;99.90;;;;;;5055325;28;20382;-86
2021/11/09 09:25:26;;;;;;;52.75;28.77;;;8.10;99.90;;;;;;5055019;28;20023;-86
2021/11/09 09:30:59;;;;;;;52.33;25.15;;;8.40;99.90;;;;;;5055083;28;20039;-86
2021/11/09 09:52:52;;;;;;;22.02;15.10;;;8.20;99.90;;;;;;5053168;28;20610;-86
2021/11/09 09:58:04;;;;;;;22.65;13.98;;;8.20;99.90;;;;;;5054123;28;20412;-86
2021/11/09 10:00:30;;;;;;;28.38;15.38;;;7.70;99.90;;;;;;5055235;28;20013;-88
2021/11/09 10:02:57;;;;;;;27.85;16.60;;;7.70;99.90;;;;;;5050314;28;20116;-87
2021/11/09 10:05:25;;;;;;;25.38;16.45;;;8.50;99.90;;;;;;5062757;28;20024;-87
2021/11/09 10:07:54;;;;;;;23.42;14.75;;;8.00;99.90;;;;;;5052533;28;20139;-86
2021/11/09 10:10:30;;;;;;;33.22;20.48;;;8.60;99.90;;;;;;5055102;28;20029;-87
2021/11/09 10:13:01;;;;;;;27.23;16.13;;;8.00;99.90;;;;;;5054380;28;20747;-86
2021/11/09 10:15:29;;;;;;;25.65;16.60;;;8.30;99.90;;;;;;5052170;28;20028;-86
2021/11/09 10:18:00;;;;;;;26.50;16.50;;;9.50;99.90;;;;;;5032991;28;20116;-86
2021/11/09 10:20:32;;;;;;;26.95;15.00;;;9.40;99.90;;;;;;5055497;28;20040;-86
2021/11/09 10:23:03;;;;;;;23.05;13.77;;;8.70;99.90;;;;;;5052669;28;20392;-87
2021/11/09 10:25:30;;;;;;;19.98;14.05;;;8.70;99.90;;;;;;5054458;28;20453;-86
2021/11/09 10:28:05;;;;;;;24.42;15.07;;;8.50;99.90;;;;;;5052384;28;20041;-87
2021/11/09 10:30:40;;;;;;;23.60;14.05;;;8.50;99.90;;;;;;5052903;28;20403;-87
2021/11/09 10:33:06;;;;;;;24.75;14.57;;;9.00;99.90;;;;;;5051283;28;20021;-86
2021/11/09 10:35:33;;;;;;;27.35;16.42;;;8.80;99.90;;;;;;5053927;28;20527;-86
2021/11/09 10:38:03;;;;;;;22.27;14.27;;;9.30;99.90;;;;;;5052511;28;20467;-86
2021/11/09 10:40:42;;;;;;;20.08;13.18;;;9.40;99.90;;;;;;5054721;28;20025;-87
2021/11/09 10:43:10;;;;;;;23.63;13.15;;;9.40;99.90;;;;;;5053590;28;20039;-94
2021/11/09 10:45:38;;;;;;;21.73;13.68;;;8.90;99.90;;;;;;5055734;28;20108;-91
2021/11/09 10:48:11;;;;;;;31.67;18.70;;;9.10;99.90;;;;;;5052370;28;20088;-92
2021/11/09 10:50:48;;;;;;;31.40;15.20;;;9.40;99.90;;;;;;5038243;28;20025;-94
2021/11/09 10:56:18;;;;;;;21.42;14.45;;;9.40;99.90;;;;;;5051082;28;20025;-92
2021/11/09 11:04:37;;;;;;;21.75;13.20;;;11.50;99.90;;;;;;5055552;28;20494;-88
2021/11/09 11:07:06;;;;;;;23.10;14.38;;;11.20;99.90;;;;;;5039597;28;20025;-94
2021/11/09 11:09:38;;;;;;;21.50;13.35;;;11.10;99.90;;;;;;5040426;28;20020;-96
2021/11/09 11:12:13;;;;;;;17.33;12.77;;;11.70;99.90;;;;;;5066644;28;20045;-93
2021/11/09 11:14:41;;;;;;;22.05;15.52;;;11.80;99.90;;;;;;5053060;28;20037;-94
2021/11/09 11:17:18;;;;;;;18.15;12.65;;;11.40;99.90;;;;;;5037358;28;20037;-94
2021/11/09 11:19:54;;;;;;;20.52;13.65;;;10.80;99.90;;;;;;5035007;28;20521;-92
2021/11/09 11:22:22;;;;;;;28.13;18.13;;;11.70;99.90;;;;;;5062259;28;20036;-91
2021/11/09 11:24:49;;;;;;;30.48;19.90;;;11.10;99.90;;;;;;5044559;28;20020;-94
2021/11/09 11:27:15;;;;;;;16.83;13.05;;;11.10;99.90;;;;;;5050880;28;20045;-89
2021/11/09 11:29:42;;;;;;;17.83;13.35;;;11.20;99.90;;;;;;5068612;28;20028;-91
2021/11/09 11:32:10;;;;;;;16.92;12.40;;;12.30;99.90;;;;;;5059530;28;20040;-93
2021/11/09 11:34:36;;;;;;;18.00;12.65;;;14.90;99.90;;;;;;5039066;28;20056;-93
2021/11/09 11:37:02;;;;;;;17.65;11.57;;;17.40;99.90;;;;;;5053113;28;20029;-92
2021/11/09 11:39:31;;;;;;;18.30;12.98;;;16.30;99.90;;;;;;5054442;28;20053;-92
2021/11/09 11:42:00;;;;;;;21.13;13.90;;;14.60;99.90;;;;;;5037726;28;20029;-92
2021/11/09 11:44:33;;;;;;;21.20;13.95;;;13.20;99.90;;;;;;5054383;28;20043;-92
2021/11/09 11:47:00;;;;;;;16.95;12.75;;;12.10;99.90;;;;;;5057415;28;20044;-92
2021/11/09 11:49:40;;;;;;;18.25;13.05;;;11.40;99.90;;;;;;5057871;28;20113;-92
2021/11/09 11:52:13;;;;;;;17.40;12.65;;;11.40;99.90;;;;;;5056570;28;20116;-94
2021/11/09 11:55:07;;;;;;;15.73;12.05;;;11.40;99.90;;;;;;5051160;28;20451;-93
2021/11/09 11:57:47;;;;;;;17.30;12.88;;;11.80;99.90;;;;;;5047569;28;20052;-95
2021/11/09 12:00:28;;;;;;;19.40;13.18;;;12.40;99.90;;;;;;5050024;28;20039;-95
2021/11/09 12:02:54;;;;;;;23.27;15.27;;;11.80;99.90;;;;;;5052188;28;20033;-93
2021/11/09 12:05:57;;;;;;;24.13;16.05;;;11.50;99.90;;;;;;5041650;28;20507;-95
2021/11/09 12:08:39;;;;;;;23.35;14.60;;;11.60;99.90;;;;;;5008921;28;20053;-93
2021/11/09 12:11:36;;;;;;;23.88;14.10;;;11.70;99.90;;;;;;4995669;28;20100;-91
2021/11/09 12:14:05;;;;;;;24.58;13.63;;;11.40;99.90;;;;;;4996412;28;20457;-88
2021/11/09 12:16:48;;;;;;;21.85;13.35;;;11.50;99.90;;;;;;5007787;28;20029;-90
2021/11/09 12:19:35;;;;;;;24.92;13.90;;;11.30;99.90;;;;;;5003127;28;20034;-90
2021/11/09 12:22:09;;;;;;;19.65;12.73;;;11.00;99.90;;;;;;4979095;28;20030;-90
2021/11/09 12:24:49;;;;;;;17.90;12.77;;;11.00;99.90;;;;;;4971678;28;20059;-91
2021/11/09 12:27:15;;;;;;;22.25;15.65;;;11.00;99.90;;;;;;4973604;28;20056;-90
2021/11/09 12:29:44;;;;;;;22.23;14.93;;;10.70;99.90;;;;;;4989441;28;20073;-91
2021/11/09 12:32:27;;;;;;;22.05;15.20;;;10.30;99.90;;;;;;4978279;28;20047;-91
2021/11/09 12:35:13;;;;;;;22.48;15.63;;;9.90;99.90;;;;;;4979033;28;20549;-91
2021/11/09 12:37:42;;;;;;;25.27;15.10;;;9.90;99.90;;;;;;4984907;28;20462;-91
2021/11/09 12:40:34;;;;;;;22.83;14.50;;;9.90;99.90;;;;;;5004362;28;20031;-91
2021/11/09 12:43:31;;;;;;;21.40;14.73;;;10.10;99.90;;;;;;5002434;28;20029;-91
2021/11/09 12:46:04;;;;;;;24.33;15.25;;;10.10;99.90;;;;;;4962100;28;20042;-91
2021/11/09 12:48:35;;;;;;;22.77;14.70;;;10.30;99.90;;;;;;4973465;28;20023;-91
2021/11/09 12:51:05;;;;;;;19.85;14.00;;;9.90;99.90;;;;;;4958079;28;20562;-90
2021/11/09 12:53:34;;;;;;;21.45;15.05;;;10.00;99.90;;;;;;4957993;28;20518;-91
2021/11/09 12:56:15;;;;;;;19.75;13.20;;;10.00;99.90;;;;;;4941284;29;20070;-90
2021/11/09 12:58:50;;;;;;;22.73;15.05;;;9.50;99.90;;;;;;4942647;29;20464;-90
2021/11/09 13:01:33;;;;;;;22.13;14.35;;;9.70;99.90;;;;;;4968561;28;20030;-90
2021/11/09 13:11:58;;;;;;;29.48;23.25;;;10.40;99.90;;;;;;4973067;28;20044;-91
2021/11/09 13:14:49;;;;;;;58.67;41.92;;;10.10;99.90;;;;;;4933852;29;20042;-91
2021/11/09 13:17:22;;;;;;;31.80;23.70;;;10.10;99.90;;;;;;4958321;28;20102;-91
2021/11/09 13:19:59;;;;;;;20.30;13.90;;;10.00;99.90;;;;;;4967639;28;20136;-87
2021/11/09 13:22:29;;;;;;;32.05;21.80;;;10.20;99.90;;;;;;4996365;28;20080;-93
2021/11/09 13:25:06;;;;;;;22.52;14.55;;;10.20;99.90;;;;;;5046856;28;20017;-91
2021/11/09 13:27:48;;;;;;;20.23;13.55;;;10.00;99.90;;;;;;5043302;28;20040;-91
2021/11/09 13:30:25;;;;;;;26.25;17.30;;;10.30;99.90;;;;;;5032293;28;20018;-90
2021/11/09 13:32:55;;;;;;;36.40;22.85;;;10.50;99.90;;;;;;5012395;28;20034;-90
2021/11/09 13:35:31;;;;;;;40.00;26.55;;;10.40;99.90;;;;;;5019329;28;20124;-89
2021/11/09 13:38:12;;;;;;;40.55;25.38;;;10.30;99.90;;;;;;5033822;28;20033;-90
2021/11/09 13:40:43;;;;;;;42.92;27.63;;;10.10;99.90;;;;;;5017544;28;20061;-90
2021/11/09 13:43:10;;;;;;;30.20;18.35;;;9.80;99.90;;;;;;5016787;28;20026;-92
2021/11/09 13:45:39;;;;;;;31.73;21.48;;;10.20;99.90;;;;;;5035265;28;20039;-91
2021/11/09 13:48:17;;;;;;;27.85;17.80;;;9.80;99.90;;;;;;5032449;28;20029;-92
2021/11/09 13:50:45;;;;;;;22.08;14.45;;;10.00;99.90;;;;;;5032612;28;20056;-92
2021/11/09 13:53:12;;;;;;;22.55;14.50;;;10.40;99.90;;;;;;5037086;28;20037;-91
2021/11/09 13:55:40;;;;;;;20.00;13.38;;;10.40;99.90;;;;;;5035144;28;20026;-92
2021/11/09 13:58:08;;;;;;;31.92;22.17;;;10.10;99.90;;;;;;5033813;28;20108;-91
2021/11/09 14:01:01;;;;;;;35.80;27.25;;;9.90;99.90;;;;;;5031774;28;20051;-92
2021/11/09 14:03:42;;;;;;;73.32;35.22;;;9.90;99.90;;;;;;5045245;28;20516;-93
2021/11/09 14:16:40;;;;;;;109.75;62.38;;;9.60;99.90;;;;;;5033347;28;20095;-93
2021/11/09 14:19:11;;;;;;;117.65;68.22;;;9.90;99.90;;;;;;5034996;28;20083;-89
2021/11/09 14:21:45;;;;;;;90.70;53.58;;;9.30;99.90;;;;;;5036332;28;20515;-92
2021/11/09 14:24:18;;;;;;;68.82;39.83;;;9.60;99.90;;;;;;5033383;28;20055;-91
2021/11/09 14:26:46;;;;;;;28.08;15.38;;;9.40;99.90;;;;;;5036307;28;20454;-92
2021/11/09 14:29:21;;;;;;;29.05;19.08;;;9.40;99.90;;;;;;5036147;28;20406;-92
2021/11/09 14:32:07;;;;;;;34.75;22.42;;;9.20;99.90;;;;;;5050261;28;20048;-92
2021/11/09 14:34:34;;;;;;;39.90;25.60;;;9.20;99.90;;;;;;5035288;28;20036;-92
2021/11/09 14:37:14;;;;;;;30.27;20.58;;;9.30;99.90;;;;;;5031241;28;20082;-92
2021/11/09 14:39:43;;;;;;;22.95;14.50;;;9.50;99.90;;;;;;5056449;28;20025;-93
2021/11/09 14:48:12;;;;;;;57.28;40.40;;;9.40;99.90;;;;;;5044427;28;20120;-90
2021/11/09 14:51:01;;;;;;;23.55;16.73;;;9.30;99.90;;;;;;5031545;28;20117;-90
2021/11/09 14:54:13;;;;;;;20.52;13.10;;;9.70;99.90;;;;;;5043584;28;20055;-90
2021/11/09 14:56:34;;;;;;;42.05;28.88;;;9.10;99.90;;;;;;5043218;28;20033;-89
2021/11/09 14:59:07;;;;;;;32.45;22.60;;;9.20;99.90;;;;;;5034340;28;20036;-89
2021/11/09 15:02:00;;;;;;;123.90;80.07;;;9.20;99.90;;;;;;5035217;28;20063;-90
2021/11/09 15:04:51;;;;;;;39.30;27.27;;;9.20;99.90;;;;;;5032605;28;20181;-89
2021/11/09 15:07:31;;;;;;;20.25;14.93;;;9.10;99.90;;;;;;5032226;28;20040;-89
2021/11/09 15:26:30;;;;;;;22.17;13.30;;;8.80;99.90;;;;;;5059840;28;20456;-89
2021/11/09 15:31:28;;;;;;;19.30;13.40;;;8.80;99.90;;;;;;5057508;28;20043;-90
2021/11/09 15:39:15;;;;;;;20.33;13.68;;;8.40;99.90;;;;;;5055007;28;20029;-89
2021/11/09 15:41:42;;;;;;;23.77;14.07;;;8.50;99.90;;;;;;5056241;28;20454;-89
2021/11/09 15:44:08;;;;;;;20.25;13.95;;;8.50;99.90;;;;;;5059465;28;20021;-89
2021/11/09 15:46:34;;;;;;;23.83;16.10;;;8.80;99.90;;;;;;5057257;28;20044;-90
2021/11/09 15:49:00;;;;;;;23.15;15.07;;;8.50;99.90;;;;;;5039448;28;20474;-89
2021/11/09 15:51:25;;;;;;;22.60;15.05;;;8.40;99.90;;;;;;5056669;28;20036;-90
2021/11/09 15:53:51;;;;;;;22.92;15.25;;;8.30;99.90;;;;;;5053532;28;20039;-90